createdAt,value
2022-09-04T00:01:03.099Z,-23666.78
2022-09-04T00:03:19.877Z,-23664.88
2022-09-04T00:05:29.292Z,-23666.16
2022-09-04T00:07:39.366Z,-23666.78
2022-09-04T00:09:55.320Z,-23665.03
2022-09-04T00:12:05.395Z,-23665.34
2022-09-04T00:14:11.516Z,-23665.34
2022-09-04T00:16:20.634Z,-23663.94
2022-09-04T00:18:30.167Z,-23663.16
2022-09-04T00:20:41.325Z,-23664.56
2022-09-04T00:22:52.411Z,-23663.00
2022-09-04T00:25:03.975Z,-23660.47
2022-09-04T00:27:11.666Z,-23659.38
2022-09-04T00:29:24.784Z,-23660.00
2022-09-04T00:31:33.933Z,-23659.22
2022-09-04T00:33:42.172Z,-23659.84
2022-09-04T00:35:54.771Z,-23659.53
2022-09-04T00:38:02.316Z,-23659.22
2022-09-04T00:40:10.653Z,-23657.94
2022-09-04T00:42:30.040Z,-23658.41
2022-09-04T00:44:46.631Z,-23657.94
2022-09-04T00:47:21.314Z,-23658.25
2022-09-04T00:49:59.614Z,-23658.88
2022-09-04T00:52:11.937Z,-23230.81
2022-09-04T00:54:32.232Z,-22108.47
2022-09-04T00:57:02.062Z,-18787.38
2022-09-04T00:59:12.038Z,-15861.38
2022-09-04T01:01:20.944Z,-16511.41
2022-09-04T01:03:41.467Z,-15535.38
2022-09-04T01:06:17.768Z,-14884.44
2022-09-04T01:08:28.732Z,-14884.44
2022-09-04T01:10:41.755Z,-14557.94
2022-09-04T01:12:52.803Z,-12931.69
2022-09-04T01:15:01.154Z,-13256.81
2022-09-04T01:17:15.380Z,-13257.53
2022-09-04T01:19:31.372Z,-16511.09
2022-09-04T01:22:12.824Z,-17486.56
2022-09-04T01:24:30.764Z,-18137.06
2022-09-04T01:26:41.289Z,-19111.22
2022-09-04T01:28:54.200Z,-18836.88
2022-09-04T01:31:05.128Z,-19111.09
2022-09-04T01:33:15.443Z,-19187.66
2022-09-04T01:35:28.725Z,-21075.38
2022-09-04T01:37:42.919Z,-22794.09
2022-09-04T01:39:52.392Z,-20613.34
2022-09-04T01:42:01.958Z,-22870.63
2022-09-04T01:44:07.237Z,-23652.59
2022-09-04T01:46:48.054Z,-23653.06
2022-09-04T01:48:59.326Z,-23653.22
2022-09-04T01:51:13.851Z,-23655.59
2022-09-04T01:53:23.722Z,-23651.94
2022-09-04T01:55:35.477Z,-23653.38
2022-09-04T01:57:55.632Z,-23651.16
2022-09-04T02:00:05.505Z,-23649.44
2022-09-04T02:02:16.543Z,-23649.91
2022-09-04T02:04:28.465Z,-23649.44
2022-09-04T02:06:39.187Z,-23649.75
2022-09-04T02:09:01.008Z,-23646.28
2022-09-04T02:11:10.114Z,-23648.31
2022-09-04T02:13:23.162Z,-23646.75
2022-09-04T02:15:39.182Z,-23646.91
2022-09-04T02:17:46.818Z,-23645.97
2022-09-04T02:20:04.696Z,-23647.84
2022-09-04T02:22:17.772Z,-23646.59
2022-09-04T02:24:28.607Z,-23646.91
2022-09-04T02:26:37.936Z,-23645.66
2022-09-04T02:28:53.059Z,-23646.28
2022-09-04T02:31:00.882Z,-23645.78
2022-09-04T02:33:15.160Z,-23646.28
2022-09-04T02:35:23.356Z,-23645.16
2022-09-04T02:37:33.453Z,-23644.84
2022-09-04T02:39:46.849Z,-23644.38
2022-09-04T02:42:00.590Z,-23641.84
2022-09-04T02:44:22.811Z,-23642.47
2022-09-04T02:46:31.315Z,-23644.06
2022-09-04T02:48:46.299Z,-23641.22
2022-09-04T02:51:07.102Z,-23642.16
2022-09-04T02:53:24.680Z,-23636.66
2022-09-04T02:55:46.592Z,-23637.13
2022-09-04T02:58:00.865Z,-23637.44
2022-09-04T03:00:14.550Z,-23636.81
2022-09-04T03:02:29.053Z,-23634.28
2022-09-04T03:04:39.058Z,-23633.81
2022-09-04T03:06:50.161Z,-23634.44
2022-09-04T03:09:00.593Z,-23632.06
2022-09-04T03:11:09.534Z,-23632.88
2022-09-04T03:13:19.136Z,-23634.59
2022-09-04T03:15:28.382Z,-23634.59
2022-09-04T03:17:41.652Z,-23634.28
2022-09-04T03:19:51.574Z,-23634.91
2022-09-04T03:21:58.712Z,-23635.22
2022-09-04T03:24:08.059Z,-23635.22
2022-09-04T03:26:19.914Z,-23634.59
2022-09-04T03:28:34.102Z,-23635.88
2022-09-04T03:30:40.168Z,-23634.44
2022-09-04T03:32:52.338Z,-23634.59
2022-09-04T03:35:02.502Z,-23633.97
2022-09-04T03:37:27.432Z,-23631.91
2022-09-04T03:39:41.521Z,-23631.44
2022-09-04T03:41:52.308Z,-23628.28
2022-09-04T03:44:08.334Z,-23629.06
2022-09-04T03:46:24.065Z,-23629.88
2022-09-04T03:48:43.061Z,-23625.75
2022-09-04T03:50:52.593Z,-23626.06
2022-09-04T03:53:00.985Z,-23629.25
2022-09-04T03:55:26.716Z,-23624.50
2022-09-04T03:57:39.484Z,-23624.50
2022-09-04T03:59:55.863Z,-23623.56
2022-09-04T04:02:06.503Z,-23623.88
2022-09-04T04:04:38.910Z,-23624.50
2022-09-04T04:06:47.348Z,-23624.66
2022-09-04T04:09:05.327Z,-23625.59
2022-09-04T04:11:26.552Z,-23624.19
2022-09-04T04:13:55.781Z,-23624.03
2022-09-04T04:16:13.300Z,-23621.50
2022-09-04T04:18:49.522Z,-23620.72
2022-09-04T04:21:01.488Z,-23621.03
2022-09-04T04:23:30.604Z,-23621.66
2022-09-04T04:25:52.648Z,-23621.97
2022-09-04T04:28:17.205Z,-23619.44
2022-09-04T04:30:20.607Z,-23618.34
2022-09-04T04:33:02.313Z,-23617.22
2022-09-04T04:35:18.013Z,-23617.53
2022-09-04T04:37:32.872Z,-23618.19
2022-09-04T04:39:41.097Z,-23618.03
2022-09-04T04:42:10.053Z,-23618.19
2022-09-04T04:44:18.043Z,-23617.22
2022-09-04T04:46:36.715Z,-23616.59
2022-09-04T04:49:05.647Z,-23617.69
2022-09-04T04:51:24.363Z,-23618.34
2022-09-04T04:53:32.584Z,-23620.25
2022-09-04T04:55:42.081Z,-23618.81
2022-09-04T04:58:16.598Z,-23620.25
2022-09-04T05:00:27.505Z,-23618.03
2022-09-04T05:02:36.582Z,-23619.44
2022-09-04T05:04:46.979Z,-23618.19
2022-09-04T05:06:57.695Z,-23618.81
2022-09-04T05:09:10.557Z,-23621.03
2022-09-04T05:11:25.766Z,-23622.91
2022-09-04T05:13:40.624Z,-23620.41
2022-09-04T05:16:07.991Z,-23621.03
2022-09-04T05:18:20.920Z,-23624.50
2022-09-04T05:20:37.140Z,-23624.81
2022-09-04T05:22:47.985Z,-23624.19
2022-09-04T05:25:01.792Z,-23624.50
2022-09-04T05:27:11.570Z,-23630.03
2022-09-04T05:29:22.642Z,-23627.50
2022-09-04T05:31:38.268Z,-23627.81
2022-09-04T05:33:49.668Z,-23628.28
2022-09-04T05:35:59.649Z,-23627.66
2022-09-04T05:38:10.640Z,-23624.66
2022-09-04T05:40:24.013Z,-23623.72
2022-09-04T05:42:45.395Z,-23626.72
2022-09-04T05:44:59.518Z,-23624.81
2022-09-04T05:47:15.849Z,-23625.13
2022-09-04T05:49:33.128Z,-23627.19
2022-09-04T05:52:04.426Z,-23629.25
2022-09-04T05:54:40.680Z,-23629.56
2022-09-04T05:57:12.964Z,-23633.19
2022-09-04T05:59:42.497Z,-23637.44
2022-09-04T06:02:11.945Z,-23639.19
2022-09-04T06:04:34.118Z,-23638.69
2022-09-04T06:06:44.935Z,-23640.28
2022-09-04T06:09:08.365Z,-23643.13
2022-09-04T06:11:38.110Z,-23643.75
2022-09-04T06:13:55.497Z,-23645.66
2022-09-04T06:16:16.141Z,-23642.97
2022-09-04T06:18:39.280Z,-23647.06
2022-09-04T06:21:14.143Z,-23652.25
2022-09-04T06:23:33.263Z,-23654.47
2022-09-04T06:25:54.788Z,-23657.00
2022-09-04T06:28:32.060Z,-23657.47
2022-09-04T06:30:43.981Z,-23662.03
2022-09-04T06:32:59.231Z,-23664.56
2022-09-04T06:35:22.884Z,-23666.78
2022-09-04T06:37:36.434Z,-23669.47
2022-09-04T06:39:52.133Z,-23670.56
2022-09-04T06:42:12.419Z,-23674.50
2022-09-04T06:44:32.253Z,-23680.00
2022-09-04T06:46:41.616Z,-23685.69
2022-09-04T06:48:54.502Z,-23692.94
2022-09-04T06:51:09.517Z,-23700.81
2022-09-04T06:53:21.223Z,-23710.88
2022-09-04T06:55:32.410Z,-23720.66
2022-09-04T06:58:00.731Z,-23730.41
2022-09-04T07:00:07.510Z,-23731.34
2022-09-04T07:02:24.867Z,-23738.56
2022-09-04T07:04:44.004Z,-23740.47
2022-09-04T07:07:02.115Z,-23751.78
2022-09-04T07:09:16.272Z,-23764.38
2022-09-04T07:11:25.491Z,-23765.31
2022-09-04T07:13:51.902Z,-23762.63
2022-09-04T07:16:16.888Z,-23756.50
2022-09-04T07:18:49.363Z,-23752.09
2022-09-04T07:21:03.056Z,-23753.38
2022-09-04T07:23:22.617Z,-23754.16
2022-09-04T07:25:34.290Z,-23759.34
2022-09-04T07:27:51.950Z,-23766.56
2022-09-04T07:30:01.487Z,-23763.41
2022-09-04T07:32:11.855Z,-23790.59
2022-09-04T07:34:22.378Z,-23799.53
2022-09-04T07:36:32.880Z,-23787.63
2022-09-04T07:38:41.707Z,-23792.94
2022-09-04T07:40:47.359Z,-23784.47
2022-09-04T07:42:55.138Z,-23807.69
2022-09-04T07:45:05.889Z,-23795.63
2022-09-04T07:47:18.057Z,-23806.75
2022-09-04T07:49:28.538Z,-23812.88
2022-09-04T07:51:38.899Z,-23835.78
2022-09-04T07:54:01.156Z,-23833.91
2022-09-04T07:56:10.116Z,-23844.88
2022-09-04T07:58:50.421Z,-23831.84
2022-09-04T08:01:10.296Z,-23860.53
2022-09-04T08:03:33.832Z,-23896.69
2022-09-04T08:05:41.339Z,-23906.69
2022-09-04T08:08:07.084Z,-23903.72
2022-09-04T08:10:26.677Z,-23951.22
2022-09-04T08:12:56.218Z,-23963.53
2022-09-04T08:15:10.793Z,-23941.69
2022-09-04T08:17:38.755Z,-23933.41
2022-09-04T08:19:50.928Z,-23914.97
2022-09-04T08:21:54.828Z,-23944.19
2022-09-04T08:24:33.806Z,-23918.88
2022-09-04T08:26:45.496Z,-23902.94
2022-09-04T08:29:03.043Z,-23914.03
2022-09-04T08:31:09.867Z,-23897.31
2022-09-04T08:33:33.713Z,-23903.72
2022-09-04T08:35:48.867Z,-23874.78
2022-09-04T08:38:19.532Z,-23884.94
2022-09-04T08:41:00.671Z,-23919.34
2022-09-04T08:43:29.799Z,-23924.22
2022-09-04T08:46:04.556Z,-23950.59
2022-09-04T08:48:54.934Z,-23963.69
2022-09-04T08:51:42.664Z,-23972.75
2022-09-04T08:54:13.884Z,-24002.84
2022-09-04T08:56:27.469Z,-24028.53
2022-09-04T08:59:11.931Z,-23988.03
2022-09-04T09:01:44.453Z,-24019.81
2022-09-04T09:04:27.357Z,-24024.31
2022-09-04T09:07:06.156Z,-23943.56
2022-09-04T09:09:57.047Z,-23960.91
2022-09-04T09:12:41.026Z,-23951.53
2022-09-04T09:15:18.365Z,-24020.28
2022-09-04T09:17:37.279Z,-24022.91
2022-09-04T09:19:47.053Z,-23946.69
2022-09-04T09:22:19.412Z,-23927.00
2022-09-04T09:24:52.521Z,-23900.75
2022-09-04T09:27:16.820Z,-23872.91
2022-09-04T09:29:43.682Z,-23884.47
2022-09-04T09:32:30.729Z,-23862.41
2022-09-04T09:35:21.247Z,-23845.66
2022-09-04T09:37:40.562Z,-23870.41
2022-09-04T09:40:14.013Z,-23904.34
2022-09-04T09:42:49.443Z,-23934.50
2022-09-04T09:45:38.408Z,-23960.59
2022-09-04T09:48:13.325Z,-23926.25
2022-09-04T09:50:58.829Z,-23953.88
2022-09-04T09:53:52.189Z,-23915.91
2022-09-04T09:56:30.749Z,-24020.28
2022-09-04T09:59:10.100Z,-24002.84
2022-09-04T10:01:37.392Z,-23994.25
2022-09-04T10:04:12.604Z,-23999.72
2022-09-04T10:06:53.944Z,-24018.09
2022-09-04T10:09:37.277Z,-23966.97
2022-09-04T10:12:07.920Z,-23957.31
2022-09-04T10:14:37.216Z,-23976.34
2022-09-04T10:17:14.525Z,-24000.34
2022-09-04T10:19:42.952Z,-24055.44
2022-09-04T10:22:14.924Z,-24010.31
2022-09-04T10:24:57.489Z,-23996.28
2022-09-04T10:27:27.548Z,-24038.94
2022-09-04T10:29:45.545Z,-24033.66
2022-09-04T10:32:34.505Z,-24023.22
2022-09-04T10:34:57.458Z,-23954.66
2022-09-04T10:37:17.477Z,-23938.09
2022-09-04T10:39:47.109Z,-23922.31
2022-09-04T10:42:05.932Z,-23930.59
2022-09-04T10:44:27.917Z,-23898.56
2022-09-04T10:46:38.098Z,-23892.31
2022-09-04T10:49:10.962Z,-23890.59
2022-09-04T10:51:37.406Z,-23893.88
2022-09-04T10:54:07.733Z,-23893.72
2022-09-04T10:56:22.999Z,-23890.13
2022-09-04T10:58:59.083Z,-23884.31
2022-09-04T11:01:39.730Z,-23903.88
2022-09-04T11:04:00.989Z,-23921.38
2022-09-04T11:06:42.264Z,-23924.50
2022-09-04T11:09:06.561Z,-23922.94
2022-09-04T11:11:23.425Z,-23929.19
2022-09-04T11:13:56.265Z,-23907.00
2022-09-04T11:16:23.222Z,-23923.41
2022-09-04T11:18:56.901Z,-23923.25
2022-09-04T11:21:34.752Z,-23930.13
2022-09-04T11:24:14.955Z,-23915.59
2022-09-04T11:27:11.164Z,-23931.84
2022-09-04T11:29:33.372Z,-23927.94
2022-09-04T11:31:49.431Z,-23932.47
2022-09-04T11:34:34.053Z,-23929.19
2022-09-04T11:36:54.473Z,-23933.72
2022-09-04T11:39:36.243Z,-23952.78
2022-09-04T11:42:08.695Z,-23956.53
2022-09-04T11:44:35.172Z,-23946.38
2022-09-04T11:47:12.090Z,-23927.00
2022-09-04T11:49:31.330Z,-23941.22
2022-09-04T11:52:00.244Z,-23925.13
2022-09-04T11:54:46.588Z,-23928.09
2022-09-04T11:57:05.230Z,-23931.69
2022-09-04T11:59:34.644Z,-23944.50
2022-09-04T12:01:55.156Z,-23944.50
2022-09-04T12:04:25.792Z,-23939.50
2022-09-04T12:06:44.630Z,-23943.09
2022-09-04T12:09:18.271Z,-23933.09
2022-09-04T12:11:42.552Z,-23946.38
2022-09-04T12:14:12.100Z,-23960.13
2022-09-04T12:16:44.583Z,-23975.09
2022-09-04T12:19:26.908Z,-23958.25
2022-09-04T12:21:58.029Z,-23956.69
2022-09-04T12:24:21.560Z,-23954.50
2022-09-04T12:26:57.056Z,-23952.94
2022-09-04T12:29:28.484Z,-23965.88
2022-09-04T12:32:03.674Z,-23967.75
2022-09-04T12:34:47.442Z,-23980.84
2022-09-04T12:37:16.166Z,-24005.94
2022-09-04T12:39:50.193Z,-23969.78
2022-09-04T12:42:02.342Z,-23980.38
2022-09-04T12:44:12.998Z,-23986.63
2022-09-04T12:46:35.678Z,-23988.34
2022-09-04T12:48:48.095Z,-23974.47
2022-09-04T12:50:58.591Z,-23996.28
2022-09-04T12:53:25.792Z,-24000.50
2022-09-04T12:55:39.360Z,-24015.59
2022-09-04T12:57:55.729Z,-24000.50
2022-09-04T13:00:08.056Z,-23984.75
2022-09-04T13:02:24.002Z,-23976.66
2022-09-04T13:04:34.179Z,-23985.06
2022-09-04T13:06:52.780Z,-23965.88
2022-09-04T13:09:11.342Z,-23956.38
2022-09-04T13:11:22.143Z,-23943.88
2022-09-04T13:13:39.390Z,-23946.06
2022-09-04T13:15:52.938Z,-23934.97
2022-09-04T13:18:12.471Z,-23929.50
2022-09-04T13:20:24.686Z,-23917.00
2022-09-04T13:22:39.411Z,-23919.66
2022-09-04T13:24:53.104Z,-23922.63
2022-09-04T13:27:09.133Z,-23924.06
2022-09-04T13:29:25.463Z,-23925.59
2022-09-04T13:31:51.167Z,-23949.66
2022-09-04T13:34:03.501Z,-23963.22
2022-09-04T13:36:19.095Z,-23960.75
2022-09-04T13:39:03.533Z,-23973.22
2022-09-04T13:41:33.352Z,-23979.44
2022-09-04T13:44:09.375Z,-23961.19
2022-09-04T13:46:18.760Z,-23976.50
2022-09-04T13:48:34.264Z,-23992.25
2022-09-04T13:50:41.019Z,-23974.94
2022-09-04T13:52:50.071Z,-23988.66
2022-09-04T13:55:03.056Z,-23984.91
2022-09-04T13:57:11.314Z,-23979.44
2022-09-04T13:59:20.563Z,-23971.66
2022-09-04T14:01:27.874Z,-23982.41
2022-09-04T14:03:37.358Z,-23953.88
2022-09-04T14:05:40.456Z,-23972.44
2022-09-04T14:07:47.525Z,-23970.25
2022-09-04T14:09:53.830Z,-23961.97
2022-09-04T14:12:11.327Z,-23966.81
2022-09-04T14:14:37.453Z,-23967.28
2022-09-04T14:16:41.698Z,-23952.47
2022-09-04T14:19:15.703Z,-23964.63
2022-09-04T14:21:30.658Z,-23966.03
2022-09-04T14:23:45.819Z,-23959.66
2022-09-04T14:25:55.215Z,-23969.16
2022-09-04T14:28:04.001Z,-23944.66
2022-09-04T14:30:09.900Z,-23959.19
2022-09-04T14:32:23.215Z,-23965.09
2022-09-04T14:34:37.531Z,-23970.88
2022-09-04T14:36:56.310Z,-23967.13
2022-09-04T14:39:13.521Z,-23973.22
2022-09-04T14:41:35.828Z,-23977.91
2022-09-04T14:43:48.718Z,-23979.16
2022-09-04T14:46:07.099Z,-23955.13
2022-09-04T14:48:12.645Z,-23963.22
2022-09-04T14:50:17.859Z,-23970.41
2022-09-04T14:52:24.649Z,-23973.22
2022-09-04T14:54:30.546Z,-23968.06
2022-09-04T14:56:41.030Z,-23963.53
2022-09-04T14:58:50.867Z,-23973.06
2022-09-04T15:01:00.157Z,-23968.84
2022-09-04T15:03:15.071Z,-23947.31
2022-09-04T15:05:24.823Z,-23941.69
2022-09-04T15:07:51.031Z,-23953.25
2022-09-04T15:09:55.210Z,-23965.56
2022-09-04T15:12:25.628Z,-23963.06
2022-09-04T15:14:34.322Z,-23962.31
2022-09-04T15:16:50.562Z,-23945.91
2022-09-04T15:18:58.978Z,-23941.84
2022-09-04T15:21:08.700Z,-23944.50
2022-09-04T15:23:18.689Z,-23949.81
2022-09-04T15:25:57.800Z,-23949.19
2022-09-04T15:28:06.718Z,-23955.44
2022-09-04T15:30:20.468Z,-23961.53
2022-09-04T15:32:27.100Z,-23946.69
2022-09-04T15:34:32.175Z,-23943.09
2022-09-04T15:36:36.079Z,-23941.22
2022-09-04T15:38:39.303Z,-23939.81
2022-09-04T15:41:12.800Z,-23938.88
2022-09-04T15:43:22.711Z,-23947.00
2022-09-04T15:45:36.021Z,-23944.03
2022-09-04T15:47:55.949Z,-23950.28
2022-09-04T15:50:04.389Z,-23939.66
2022-09-04T15:52:22.913Z,-23941.38
2022-09-04T15:54:50.933Z,-23937.94
2022-09-04T15:57:02.610Z,-23939.03
2022-09-04T15:59:15.836Z,-23937.94
2022-09-04T16:01:24.940Z,-23936.38
2022-09-04T16:03:36.514Z,-23941.38
2022-09-04T16:05:44.883Z,-23937.94
2022-09-04T16:08:03.686Z,-23936.22
2022-09-04T16:10:15.934Z,-23929.50
2022-09-04T16:12:23.079Z,-23932.16
2022-09-04T16:14:31.591Z,-23935.44
2022-09-04T16:16:42.550Z,-23933.56
2022-09-04T16:18:53.180Z,-23928.28
2022-09-04T16:21:00.028Z,-23925.47
2022-09-04T16:23:08.299Z,-23929.50
2022-09-04T16:25:23.940Z,-23931.06
2022-09-04T16:27:30.469Z,-23928.28
2022-09-04T16:29:36.946Z,-23924.22
2022-09-04T16:31:41.285Z,-23925.59
2022-09-04T16:33:50.157Z,-23923.09
2022-09-04T16:35:55.750Z,-23924.22
2022-09-04T16:38:06.712Z,-23927.78
2022-09-04T16:40:28.400Z,-23931.06
2022-09-04T16:42:40.246Z,-23933.25
2022-09-04T16:44:48.379Z,-23929.50
2022-09-04T16:47:04.717Z,-23926.53
2022-09-04T16:49:13.432Z,-23927.00
2022-09-04T16:51:41.008Z,-23926.69
2022-09-04T16:53:51.818Z,-23928.28
2022-09-04T16:55:59.947Z,-23927.47
2022-09-04T16:58:35.432Z,-23927.16
2022-09-04T17:00:54.468Z,-23923.56
2022-09-04T17:03:18.260Z,-23912.94
2022-09-04T17:05:34.941Z,-23903.41
2022-09-04T17:07:45.763Z,-23899.19
2022-09-04T17:09:58.696Z,-23896.69
2022-09-04T17:12:17.902Z,-23897.31
2022-09-04T17:14:26.352Z,-23899.34
2022-09-04T17:16:38.277Z,-23906.38
2022-09-04T17:18:47.824Z,-23904.66
2022-09-04T17:24:36.588Z,-23894.19
2022-09-04T17:28:18.986Z,-23897.31
2022-09-04T17:29:08.058Z,-23893.88
2022-09-04T17:29:08.637Z,-23899.19
2022-09-04T17:31:08.077Z,-23890.28
2022-09-04T17:36:49.262Z,-23893.88
2022-09-04T17:40:35.701Z,-23876.66
2022-09-04T17:40:42.935Z,-23887.44
2022-09-04T17:41:33.271Z,-23868.50
2022-09-04T17:43:36.575Z,-23865.38
2022-09-04T17:45:51.266Z,-23866.31
2022-09-04T17:48:02.402Z,-23863.50
2022-09-04T17:50:13.836Z,-23866.31
2022-09-04T17:52:27.062Z,-23860.06
2022-09-04T17:54:33.500Z,-23862.72
2022-09-04T17:56:41.709Z,-23859.13
2022-09-04T17:58:50.364Z,-23851.28
2022-09-04T18:01:15.115Z,-23845.19
2022-09-04T18:03:29.699Z,-23850.03
2022-09-04T18:05:39.993Z,-23855.06
2022-09-04T18:08:08.252Z,-23851.44
2022-09-04T18:10:20.986Z,-23848.16
2022-09-04T18:12:31.368Z,-23845.34
2022-09-04T18:14:40.509Z,-23840.63
2022-09-04T18:17:11.765Z,-23845.66
2022-09-04T18:19:21.957Z,-23841.25
2022-09-04T18:21:28.601Z,-23834.69
2022-09-04T18:23:51.171Z,-23832.94
2022-09-04T18:25:59.436Z,-23832.47
2022-09-04T18:28:12.696Z,-23832.31
2022-09-04T18:36:11.543Z,-23830.91
2022-09-04T18:37:06.096Z,-23826.22
2022-09-04T18:37:21.334Z,-23825.41
2022-09-04T18:37:51.257Z,-23821.50
2022-09-04T18:40:07.189Z,-23817.75
2022-09-04T18:46:15.100Z,-23818.06
2022-09-04T18:50:31.292Z,-23815.53
2022-09-04T18:50:44.270Z,-23809.91
2022-09-04T18:50:50.078Z,-23809.91
2022-09-04T18:52:06.724Z,-23805.50
2022-09-04T18:54:13.024Z,-23803.16
2022-09-04T18:56:20.795Z,-23804.56
2022-09-04T18:58:45.972Z,-23802.69
2022-09-04T19:00:54.029Z,-23804.88
2022-09-04T19:03:10.302Z,-23806.75
2022-09-04T19:05:15.096Z,-23804.72
2022-09-04T19:07:27.517Z,-23805.50
2022-09-04T19:09:48.619Z,-23805.19
2022-09-04T19:12:07.548Z,-23806.13
2022-09-04T19:14:15.375Z,-23806.91
2022-09-04T19:16:25.678Z,-23804.56
2022-09-04T19:18:41.721Z,-23803.00
2022-09-04T19:20:50.070Z,-23805.19
2022-09-04T19:22:55.812Z,-23808.03
2022-09-04T19:25:05.350Z,-23807.38
2022-09-04T19:27:27.358Z,-23805.19
2022-09-04T19:29:38.983Z,-23806.59
2022-09-04T19:31:45.009Z,-23806.75
2022-09-04T19:33:54.002Z,-23810.22
2022-09-04T19:36:05.767Z,-23807.69
2022-09-04T19:43:16.191Z,-23793.56
2022-09-04T19:45:34.807Z,-23802.53
2022-09-04T19:45:53.746Z,-23799.22
2022-09-04T19:46:17.278Z,-23789.81
2022-09-04T19:48:26.326Z,-23789.19
2022-09-04T19:53:23.138Z,-23789.81
2022-09-04T19:53:24.123Z,-23788.72
2022-09-04T19:55:33.043Z,-23787.28
2022-09-04T19:57:42.792Z,-23784.47
2022-09-04T19:59:51.385Z,-23786.34
2022-09-04T20:01:58.153Z,-23784.94
2022-09-04T20:04:12.408Z,-23784.47
2022-09-04T20:06:22.546Z,-23792.94
2022-09-04T20:08:32.662Z,-23798.75
2022-09-04T20:10:44.428Z,-23803.63
2022-09-04T20:12:51.266Z,-23802.19
2022-09-04T20:15:02.854Z,-23802.53
2022-09-04T20:17:21.658Z,-23798.13
2022-09-04T20:19:28.941Z,-23793.88
2022-09-04T20:21:45.059Z,-23787.63
2022-09-04T20:23:53.289Z,-23781.34
2022-09-04T20:26:04.335Z,-23779.44
2022-09-04T20:28:22.929Z,-23777.56
2022-09-04T20:30:27.180Z,-23773.94
2022-09-04T20:32:34.765Z,-23772.84
2022-09-04T20:34:44.631Z,-23775.34
2022-09-04T20:36:52.481Z,-23775.50
2022-09-04T20:38:59.802Z,-23775.66
2022-09-04T20:41:12.724Z,-23770.97
2022-09-04T20:43:28.053Z,-23769.69
2022-09-04T20:47:21.691Z,-23768.13
2022-09-04T20:52:48.977Z,-23767.34
2022-09-04T20:53:07.267Z,-23765.94
2022-09-04T20:53:14.897Z,-23761.38
2022-09-04T20:55:35.154Z,-23759.97
2022-09-04T21:03:05.369Z,-23758.06
2022-09-04T21:03:13.706Z,-23754.63
2022-09-04T21:03:22.399Z,-23754.63
2022-09-04T21:05:41.419Z,-23754.94
2022-09-04T21:07:49.194Z,-23754.16
2022-09-04T21:10:05.823Z,-23754.94
2022-09-04T21:12:32.815Z,-23752.41
2022-09-04T21:14:45.778Z,-23754.31
2022-09-04T21:17:33.525Z,-23757.13
2022-09-04T21:20:04.042Z,-23753.03
2022-09-04T21:22:33.442Z,-23752.41
2022-09-04T21:24:54.801Z,-23754.00
2022-09-04T21:27:28.500Z,-23752.41
2022-09-04T21:29:59.327Z,-23749.59
2022-09-04T21:32:21.388Z,-23746.75
2022-09-04T21:34:45.692Z,-23743.78
2022-09-04T21:36:55.409Z,-23744.25
2022-09-04T21:39:28.437Z,-23742.66
2022-09-04T21:41:54.799Z,-23741.09
2022-09-04T21:44:34.398Z,-23739.84
2022-09-04T21:47:16.055Z,-23738.25
2022-09-04T21:49:36.838Z,-23738.72
2022-09-04T21:51:58.860Z,-23738.41
2022-09-04T21:54:37.535Z,-23738.25
2022-09-04T22:02:28.791Z,-23731.97
2022-09-04T22:02:36.344Z,-23726.00
2022-09-04T22:02:55.604Z,-23724.59
2022-09-04T22:05:13.077Z,-23725.06
2022-09-04T22:10:52.863Z,-23723.16
2022-09-04T22:13:29.848Z,-23726.00
2022-09-04T22:13:38.742Z,-23727.09
2022-09-04T22:15:31.620Z,-23727.25
2022-09-04T22:18:04.961Z,-23728.50
2022-09-04T22:20:34.860Z,-23725.69
2022-09-04T22:23:05.781Z,-23720.81
2022-09-04T22:25:27.897Z,-23724.44
2022-09-04T22:28:07.566Z,-23721.59
2022-09-04T22:30:14.847Z,-23720.19
2022-09-04T22:32:53.239Z,-23718.59
2022-09-04T22:35:43.394Z,-23715.91
2022-09-04T22:38:30.637Z,-23715.59
2022-09-04T22:40:56.866Z,-23715.91
2022-09-04T22:43:14.493Z,-23714.50
2022-09-04T22:45:59.518Z,-23713.88
2022-09-04T22:48:23.623Z,-23712.63
2022-09-04T22:50:49.363Z,-23711.19
2022-09-04T22:53:29.136Z,-23714.66
2022-09-04T22:56:19.198Z,-23714.97
2022-09-04T22:58:27.319Z,-23711.97
2022-09-04T23:00:44.202Z,-23709.16
2022-09-04T23:03:15.894Z,-23708.69
2022-09-04T23:05:47.847Z,-23711.50
2022-09-04T23:13:43.116Z,-23706.94
2022-09-04T23:13:44.860Z,-23705.53
2022-09-04T23:13:56.457Z,-23705.84
2022-09-04T23:16:08.056Z,-23705.06
2022-09-04T23:24:21.245Z,-23707.09
2022-09-04T23:26:34.871Z,-23706.47
2022-09-04T23:26:50.719Z,-23704.28
2022-09-04T23:27:00.975Z,-23703.34
2022-09-04T23:29:24.756Z,-23706.16
2022-09-04T23:31:47.370Z,-23708.38
2022-09-04T23:34:14.058Z,-23707.25
2022-09-04T23:36:38.955Z,-23704.91
2022-09-04T23:39:27.246Z,-23703.16
2022-09-04T23:41:53.612Z,-23703.16
2022-09-04T23:44:34.093Z,-23703.97
2022-09-04T23:47:06.013Z,-23706.16
2022-09-04T23:49:33.715Z,-23704.13
2022-09-04T23:51:47.940Z,-23703.00
2022-09-04T23:53:59.366Z,-23701.59
2022-09-04T23:56:18.755Z,-23702.22
2022-09-04T23:58:53.914Z,-23700.66
